St. Elmo — WDG2405 — position and weather

sailwx.info

Track history (hours):
 
Tides and Currents Weather Stations Pressure Air Temp Water Temp Dewpoint Dewpoint Depression Visibility Wind Speed Wind Dir Waves Ship Positions

St. Elmo

Owner: Marquette Transportation Company Gulf-Inland, LLC, Jefferson, LA. More information available from US FCC via Universal Licensing System and Coast Guard Vessel Documentation Center.

Last reported at 2014-Oct-25 14:19 UTC. Time now 2014-Oct-25 15:27 UTC.
Position N 29°45' W 095°06'.

MMSI: 367515330.

Date/timePositionNaut miles runAvg speedWind from/ knotsBaromVisibWave heightAir tempDewpointWater temp
2014-Oct-25 14:19N 29°45' W 095°06'1 0.8
2014-Oct-25 13:33N 29°46' W 095°06'0 0.0
2014-Oct-25 12:33N 29°46' W 095°06'0 0.0
2014-Oct-25 11:33N 29°46' W 095°06'0 0.0
2014-Oct-25 10:33N 29°46' W 095°06'0 0.0
2014-Oct-25 09:33N 29°46' W 095°06'0 0.0
2014-Oct-25 08:33N 29°46' W 095°06'0 0.0
2014-Oct-25 07:33N 29°46' W 095°06'0 0.0
2014-Oct-25 06:33N 29°46' W 095°06'0 0.0
2014-Oct-25 05:33N 29°46' W 095°06'0 0.0
2014-Oct-25 04:33N 29°46' W 095°06'0 0.0
2014-Oct-25 03:33N 29°46' W 095°06'0 0.0
2014-Oct-25 02:33N 29°46' W 095°06'0 0.0
2014-Oct-25 01:30N 29°46' W 095°05'0 0.0
2014-Oct-25 00:33N 29°46' W 095°06'0 0.0
2014-Oct-24 23:31N 29°46' W 095°05'3 3.6
2014-Oct-24 22:33N 29°44' W 095°02'6 5.6
2014-Oct-24 21:33N 29°40' W 094°58'6 6.2
2014-Oct-24 20:33N 29°34' W 094°55'12 1.6
2014-Oct-24 13:09N 29°22' W 094°55'9 0.5
2014-Oct-23 20:05N 29°30' W 094°52'3 5.1
2014-Oct-23 19:33N 29°32' W 094°54'5 5.1
2014-Oct-23 18:33N 29°37' W 094°57'3 3.5
2014-Oct-23 17:33N 29°37' W 095°01'0 0.2
2014-Oct-23 16:33N 29°37' W 095°01'0 0.2
2014-Oct-23 15:31N 29°37' W 095°02'0 0.0
2014-Oct-23 14:33N 29°37' W 095°02'0 0.0
2014-Oct-23 13:32N 29°37' W 095°02'0 0.0
2014-Oct-23 12:32N 29°37' W 095°02'0 0.0
2014-Oct-23 11:33N 29°37' W 095°02'0 0.0
2014-Oct-23 10:31N 29°37' W 095°02'0 0.0
2014-Oct-23 09:33N 29°37' W 095°02'0 0.0
2014-Oct-23 08:33N 29°37' W 095°02'0 0.0
2014-Oct-23 07:32N 29°37' W 095°02'0 0.0
2014-Oct-23 06:33N 29°37' W 095°02'0 0.0
2014-Oct-23 05:32N 29°37' W 095°02'0 0.0
2014-Oct-23 04:33N 29°37' W 095°02'0 0.0
2014-Oct-23 03:33N 29°37' W 095°02'0 0.0
2014-Oct-23 02:33N 29°37' W 095°02'0 0.1
2014-Oct-23 01:33N 29°37' W 095°01'1 1.0
2014-Oct-23 00:33N 29°37' W 095°00'3 3.4
2014-Oct-22 23:34N 29°40' W 094°59'5 5.2
2014-Oct-22 22:33N 29°44' W 095°03'3 3.4
2014-Oct-22 21:33N 29°46' W 095°05'0 0.0
2014-Oct-22 20:33N 29°46' W 095°05'0 0.0
2014-Oct-22 19:33N 29°46' W 095°05'0 0.0
2014-Oct-22 18:33N 29°46' W 095°05'0 0.0
2014-Oct-22 17:33N 29°46' W 095°05'0 0.0
2014-Oct-22 16:33N 29°46' W 095°05'0 0.0
2014-Oct-22 15:32N 29°46' W 095°05'0 0.0
2014-Oct-22 14:33N 29°46' W 095°05'0 0.0
2014-Oct-22 13:33N 29°46' W 095°05'0 0.0
2014-Oct-22 12:33N 29°46' W 095°05'0 0.0
2014-Oct-22 11:31N 29°46' W 095°05'0 0.0
2014-Oct-22 10:33N 29°46' W 095°05'0 0.0
2014-Oct-22 09:31N 29°46' W 095°05'0 0.0
2014-Oct-22 08:33N 29°46' W 095°05'0 0.0
2014-Oct-22 07:29N 29°46' W 095°05'0 0.0
2014-Oct-22 06:32N 29°46' W 095°05'0 0.0
2014-Oct-22 05:33N 29°46' W 095°05'0 0.0
2014-Oct-22 04:30N 29°46' W 095°05'0 0.0
2014-Oct-22 03:33N 29°46' W 095°05'0 0.0
2014-Oct-22 02:33N 29°46' W 095°05'0 0.0
2014-Oct-22 01:33N 29°46' W 095°05'0 0.0
2014-Oct-22 00:31N 29°46' W 095°05'0 0.0
2014-Oct-21 23:33N 29°46' W 095°05'0 0.0
2014-Oct-21 22:33N 29°46' W 095°05'0 0.0
2014-Oct-21 21:33N 29°46' W 095°05'0 0.0
2014-Oct-21 20:33N 29°46' W 095°05'0 0.0
2014-Oct-21 19:33N 29°46' W 095°05'0 0.0
2014-Oct-21 18:33N 29°46' W 095°05'0 0.0
2014-Oct-21 17:31N 29°46' W 095°05'0 0.0
2014-Oct-21 16:33N 29°46' W 095°05'0 0.0
2014-Oct-21 15:33N 29°46' W 095°05'0 0.0
2014-Oct-21 14:33N 29°46' W 095°05'0 0.0
2014-Oct-21 13:33N 29°46' W 095°05'0 0.0
2014-Oct-21 12:33N 29°46' W 095°05'0 0.0
2014-Oct-21 11:33N 29°46' W 095°05'0 0.0
2014-Oct-21 10:33N 29°46' W 095°05'0 0.0
2014-Oct-21 09:32N 29°46' W 095°05'0 0.0
2014-Oct-21 08:33N 29°46' W 095°05'0 0.0
2014-Oct-21 07:33N 29°46' W 095°05'0 0.0
2014-Oct-21 06:33N 29°46' W 095°05'0 0.0
2014-Oct-21 05:33N 29°46' W 095°05'0 0.0
2014-Oct-21 04:32N 29°46' W 095°05'0 0.0
2014-Oct-21 03:33N 29°46' W 095°05'0 0.0
2014-Oct-21 02:33N 29°46' W 095°05'0 0.0
2014-Oct-21 01:33N 29°46' W 095°05'0 0.0
2014-Oct-21 00:33N 29°46' W 095°05'0 0.0
2014-Oct-20 23:31N 29°46' W 095°05'0 0.0
2014-Oct-20 22:28N 29°46' W 095°05'0 0.0
2014-Oct-20 21:31N 29°46' W 095°05'0 0.0
2014-Oct-20 19:24N 29°46' W 095°05'0 0.0
2014-Oct-20 18:33N 29°46' W 095°05'0 0.0
2014-Oct-20 17:31N 29°46' W 095°05'0 0.0
2014-Oct-20 16:24N 29°46' W 095°05'0 0.0
2014-Oct-20 15:09N 29°46' W 095°05'0 0.0
2014-Oct-20 14:22N 29°46' W 095°05'0 0.0
2014-Oct-20 13:29N 29°46' W 095°05'0 0.0
2014-Oct-20 12:33N 29°46' W 095°05'0 0.0
2014-Oct-20 11:24N 29°46' W 095°05'0 0.0
2014-Oct-20 10:33N 29°46' W 095°05'0 0.0
2014-Oct-20 09:33N 29°46' W 095°05'0 0.0
2014-Oct-20 08:33N 29°46' W 095°05'0 0.0
2014-Oct-20 07:32N 29°46' W 095°05'0 0.0
2014-Oct-20 06:33N 29°46' W 095°05'0 0.0
2014-Oct-20 05:33N 29°46' W 095°05'0 0.0
2014-Oct-20 04:33N 29°46' W 095°05'0 0.0
2014-Oct-20 03:30N 29°46' W 095°05'0 0.0
2014-Oct-20 02:33N 29°46' W 095°05'0 0.0
2014-Oct-20 01:30N 29°46' W 095°05'0 0.0
2014-Oct-20 00:31N 29°46' W 095°05'0 0.3
2014-Oct-19 23:11N 29°46' W 095°05'0 0.6
2014-Oct-19 22:31N 29°46' W 095°05'0 0.0
2014-Oct-19 21:33N 29°46' W 095°05'0 0.0
2014-Oct-19 20:29N 29°46' W 095°05'0 0.0
2014-Oct-19 19:17N 29°46' W 095°05'0 0.0
2014-Oct-19 18:33N 29°46' W 095°05'0 0.0
2014-Oct-19 17:33N 29°46' W 095°05'0 0.0
2014-Oct-19 16:33N 29°46' W 095°05'0 0.0
2014-Oct-19 15:32N 29°46' W 095°05'0 0.0
2014-Oct-19 14:32N 29°46' W 095°05'0 0.0
2014-Oct-19 13:32N 29°46' W 095°05'0 0.0
2014-Oct-19 12:32N 29°46' W 095°05'0 0.0
2014-Oct-19 11:33N 29°46' W 095°05'0 0.0
2014-Oct-19 10:33N 29°46' W 095°05'0 0.0
2014-Oct-19 09:33N 29°46' W 095°05'0 0.0
2014-Oct-19 08:33N 29°46' W 095°05'0 0.0
2014-Oct-19 07:30N 29°46' W 095°05'0 0.0
2014-Oct-19 06:29N 29°46' W 095°05'0 0.0
2014-Oct-19 05:33N 29°46' W 095°05'0 0.0
2014-Oct-19 04:33N 29°46' W 095°05'0 0.0
2014-Oct-19 03:33N 29°46' W 095°05'0 0.0
2014-Oct-19 02:33N 29°46' W 095°05'0 0.0
2014-Oct-19 01:32N 29°46' W 095°05'0 0.0
2014-Oct-19 00:32N 29°46' W 095°05'0 0.0
2014-Oct-18 23:33N 29°46' W 095°05'0 0.0
2014-Oct-18 22:29N 29°46' W 095°05'0 0.0
2014-Oct-18 21:33N 29°46' W 095°05'0 0.0
2014-Oct-18 20:32N 29°46' W 095°05'0 0.0
2014-Oct-18 19:33N 29°46' W 095°05'0 0.0
2014-Oct-18 18:30N 29°46' W 095°05'0 0.0
2014-Oct-18 17:29N 29°46' W 095°05'0 0.0
2014-Oct-18 16:31N 29°46' W 095°05'0 0.0
2014-Oct-18 15:33N 29°46' W 095°05'0 0.0
2014-Oct-18 14:33N 29°46' W 095°05'0 0.0
2014-Oct-18 13:33N 29°46' W 095°05'0 0.0
2014-Oct-18 12:33N 29°46' W 095°05'0 0.0
2014-Oct-18 11:33N 29°46' W 095°05'0 0.0
2014-Oct-18 10:30N 29°46' W 095°05'0 0.0
2014-Oct-18 09:33N 29°46' W 095°05'1 0.3
2014-Oct-18 07:24N 29°46' W 095°06'1 0.8
2014-Oct-18 06:33N 29°46' W 095°05'0 0.1
2014-Oct-18 05:33N 29°46' W 095°05'0 0.0
2014-Oct-18 04:33N 29°46' W 095°05'0 0.0
2014-Oct-18 03:33N 29°46' W 095°05'0 0.0
2014-Oct-18 02:33N 29°46' W 095°05'0 0.0
2014-Oct-18 01:33N 29°46' W 095°05'0 0.0
2014-Oct-18 00:33N 29°46' W 095°05'0 0.0
2014-Oct-17 23:33N 29°46' W 095°05'0 0.2
2014-Oct-17 22:33N 29°46' W 095°05'5 5.0
2014-Oct-17 21:33N 29°42' W 095°01'5 5.1
2014-Oct-17 20:33N 29°38' W 094°58'6 6.0
2014-Oct-17 19:33N 29°33' W 094°54'3 0.1
2014-Oct-16 21:05N 29°30' W 094°52'3 5.5
2014-Oct-16 20:33N 29°33' W 094°54'5 5.1
2014-Oct-16 19:33N 29°37' W 094°58'3 3.3
2014-Oct-16 18:33N 29°37' W 095°01'0 0.0
2014-Oct-16 17:33N 29°37' W 095°01'0 0.0
2014-Oct-16 16:33N 29°37' W 095°01'0 0.0
2014-Oct-16 15:33N 29°37' W 095°01'0 0.0
2014-Oct-16 14:33N 29°37' W 095°01'0 0.0
2014-Oct-16 13:33N 29°37' W 095°01'0 0.0
2014-Oct-16 12:33N 29°37' W 095°01'0 0.0
2014-Oct-16 11:33N 29°37' W 095°01'0 0.0
2014-Oct-16 10:33N 29°37' W 095°01'0 0.0
2014-Oct-16 09:33N 29°37' W 095°01'0 0.0
2014-Oct-16 08:33N 29°37' W 095°01'0 0.0
2014-Oct-16 07:33N 29°37' W 095°01'0 0.2
2014-Oct-16 06:33N 29°37' W 095°01'0 0.0
2014-Oct-16 05:33N 29°37' W 095°02'0 0.0
2014-Oct-16 04:33N 29°37' W 095°02'0 0.0
2014-Oct-16 03:33N 29°37' W 095°02'0 0.0
2014-Oct-16 02:33N 29°37' W 095°02'0 0.0
2014-Oct-16 01:33N 29°37' W 095°02'0 0.0
2014-Oct-16 00:33N 29°37' W 095°02'0 0.0
2014-Oct-15 23:33N 29°37' W 095°02'0 0.0
2014-Oct-15 22:33N 29°37' W 095°02'0 0.0
2014-Oct-15 21:33N 29°37' W 095°02'0 0.0
2014-Oct-15 20:33N 29°37' W 095°02'0 0.0
2014-Oct-15 19:33N 29°37' W 095°02'0 0.0
2014-Oct-15 18:33N 29°37' W 095°02'0 0.0
2014-Oct-15 17:31N 29°37' W 095°02'0 0.0
2014-Oct-15 16:33N 29°37' W 095°02'3 3.5
2014-Oct-15 15:33N 29°37' W 094°58'6 5.8
2014-Oct-15 14:33N 29°32' W 094°54'  
Track history (hours):
 
Tides and Currents Weather Stations Pressure Air Temp Water Temp Dewpoint Dewpoint Depression Visibility Wind Speed Wind Dir Waves Ship Positions

St. Elmo

Owner: Marquette Transportation Company Gulf-Inland, LLC, Jefferson, LA. More information available from US FCC via Universal Licensing System and Coast Guard Vessel Documentation Center.

Last reported at 2014-Oct-25 14:19 UTC. Time now 2014-Oct-25 15:27 UTC.
Position N 29°45' W 095°06'.

MMSI: 367515330.

Date/timePositionNaut miles runAvg speedWind from/ knotsBaromVisibWave heightAir tempDewpointWater temp
2014-Oct-25 14:19N 29°45' W 095°06'1 0.8
2014-Oct-25 13:33N 29°46' W 095°06'0 0.0
2014-Oct-25 12:33N 29°46' W 095°06'0 0.0
2014-Oct-25 11:33N 29°46' W 095°06'0 0.0
2014-Oct-25 10:33N 29°46' W 095°06'0 0.0
2014-Oct-25 09:33N 29°46' W 095°06'0 0.0
2014-Oct-25 08:33N 29°46' W 095°06'0 0.0
2014-Oct-25 07:33N 29°46' W 095°06'0 0.0
2014-Oct-25 06:33N 29°46' W 095°06'0 0.0
2014-Oct-25 05:33N 29°46' W 095°06'0 0.0
2014-Oct-25 04:33N 29°46' W 095°06'0 0.0
2014-Oct-25 03:33N 29°46' W 095°06'0 0.0
2014-Oct-25 02:33N 29°46' W 095°06'0 0.0
2014-Oct-25 01:30N 29°46' W 095°05'0 0.0
2014-Oct-25 00:33N 29°46' W 095°06'0 0.0
2014-Oct-24 23:31N 29°46' W 095°05'3 3.6
2014-Oct-24 22:33N 29°44' W 095°02'6 5.6
2014-Oct-24 21:33N 29°40' W 094°58'6 6.2
2014-Oct-24 20:33N 29°34' W 094°55'12 1.6
2014-Oct-24 13:09N 29°22' W 094°55'9 0.5
2014-Oct-23 20:05N 29°30' W 094°52'3 5.1
2014-Oct-23 19:33N 29°32' W 094°54'5 5.1
2014-Oct-23 18:33N 29°37' W 094°57'3 3.5
2014-Oct-23 17:33N 29°37' W 095°01'0 0.2
2014-Oct-23 16:33N 29°37' W 095°01'0 0.2
2014-Oct-23 15:31N 29°37' W 095°02'0 0.0
2014-Oct-23 14:33N 29°37' W 095°02'0 0.0
2014-Oct-23 13:32N 29°37' W 095°02'0 0.0
2014-Oct-23 12:32N 29°37' W 095°02'0 0.0
2014-Oct-23 11:33N 29°37' W 095°02'0 0.0
2014-Oct-23 10:31N 29°37' W 095°02'0 0.0
2014-Oct-23 09:33N 29°37' W 095°02'0 0.0
2014-Oct-23 08:33N 29°37' W 095°02'0 0.0
2014-Oct-23 07:32N 29°37' W 095°02'0 0.0
2014-Oct-23 06:33N 29°37' W 095°02'0 0.0
2014-Oct-23 05:32N 29°37' W 095°02'0 0.0
2014-Oct-23 04:33N 29°37' W 095°02'0 0.0
2014-Oct-23 03:33N 29°37' W 095°02'0 0.0
2014-Oct-23 02:33N 29°37' W 095°02'0 0.1
2014-Oct-23 01:33N 29°37' W 095°01'1 1.0
2014-Oct-23 00:33N 29°37' W 095°00'3 3.4
2014-Oct-22 23:34N 29°40' W 094°59'5 5.2
2014-Oct-22 22:33N 29°44' W 095°03'3 3.4
2014-Oct-22 21:33N 29°46' W 095°05'0 0.0
2014-Oct-22 20:33N 29°46' W 095°05'0 0.0
2014-Oct-22 19:33N 29°46' W 095°05'0 0.0
2014-Oct-22 18:33N 29°46' W 095°05'0 0.0
2014-Oct-22 17:33N 29°46' W 095°05'0 0.0
2014-Oct-22 16:33N 29°46' W 095°05'0 0.0
2014-Oct-22 15:32N 29°46' W 095°05'0 0.0
2014-Oct-22 14:33N 29°46' W 095°05'0 0.0
2014-Oct-22 13:33N 29°46' W 095°05'0 0.0
2014-Oct-22 12:33N 29°46' W 095°05'0 0.0
2014-Oct-22 11:31N 29°46' W 095°05'0 0.0
2014-Oct-22 10:33N 29°46' W 095°05'0 0.0
2014-Oct-22 09:31N 29°46' W 095°05'0 0.0
2014-Oct-22 08:33N 29°46' W 095°05'0 0.0
2014-Oct-22 07:29N 29°46' W 095°05'0 0.0
2014-Oct-22 06:32N 29°46' W 095°05'0 0.0
2014-Oct-22 05:33N 29°46' W 095°05'0 0.0
2014-Oct-22 04:30N 29°46' W 095°05'0 0.0
2014-Oct-22 03:33N 29°46' W 095°05'0 0.0
2014-Oct-22 02:33N 29°46' W 095°05'0 0.0
2014-Oct-22 01:33N 29°46' W 095°05'0 0.0
2014-Oct-22 00:31N 29°46' W 095°05'0 0.0
2014-Oct-21 23:33N 29°46' W 095°05'0 0.0
2014-Oct-21 22:33N 29°46' W 095°05'0 0.0
2014-Oct-21 21:33N 29°46' W 095°05'0 0.0
2014-Oct-21 20:33N 29°46' W 095°05'0 0.0
2014-Oct-21 19:33N 29°46' W 095°05'0 0.0
2014-Oct-21 18:33N 29°46' W 095°05'0 0.0
2014-Oct-21 17:31N 29°46' W 095°05'0 0.0
2014-Oct-21 16:33N 29°46' W 095°05'0 0.0
2014-Oct-21 15:33N 29°46' W 095°05'0 0.0
2014-Oct-21 14:33N 29°46' W 095°05'0 0.0
2014-Oct-21 13:33N 29°46' W 095°05'0 0.0
2014-Oct-21 12:33N 29°46' W 095°05'0 0.0
2014-Oct-21 11:33N 29°46' W 095°05'0 0.0
2014-Oct-21 10:33N 29°46' W 095°05'0 0.0
2014-Oct-21 09:32N 29°46' W 095°05'0 0.0
2014-Oct-21 08:33N 29°46' W 095°05'0 0.0
2014-Oct-21 07:33N 29°46' W 095°05'0 0.0
2014-Oct-21 06:33N 29°46' W 095°05'0 0.0
2014-Oct-21 05:33N 29°46' W 095°05'0 0.0
2014-Oct-21 04:32N 29°46' W 095°05'0 0.0
2014-Oct-21 03:33N 29°46' W 095°05'0 0.0
2014-Oct-21 02:33N 29°46' W 095°05'0 0.0
2014-Oct-21 01:33N 29°46' W 095°05'0 0.0
2014-Oct-21 00:33N 29°46' W 095°05'0 0.0
2014-Oct-20 23:31N 29°46' W 095°05'0 0.0
2014-Oct-20 22:28N 29°46' W 095°05'0 0.0
2014-Oct-20 21:31N 29°46' W 095°05'0 0.0
2014-Oct-20 19:24N 29°46' W 095°05'0 0.0
2014-Oct-20 18:33N 29°46' W 095°05'0 0.0
2014-Oct-20 17:31N 29°46' W 095°05'0 0.0
2014-Oct-20 16:24N 29°46' W 095°05'0 0.0
2014-Oct-20 15:09N 29°46' W 095°05'0 0.0
2014-Oct-20 14:22N 29°46' W 095°05'0 0.0
2014-Oct-20 13:29N 29°46' W 095°05'0 0.0
2014-Oct-20 12:33N 29°46' W 095°05'0 0.0
2014-Oct-20 11:24N 29°46' W 095°05'0 0.0
2014-Oct-20 10:33N 29°46' W 095°05'0 0.0
2014-Oct-20 09:33N 29°46' W 095°05'0 0.0
2014-Oct-20 08:33N 29°46' W 095°05'0 0.0
2014-Oct-20 07:32N 29°46' W 095°05'0 0.0
2014-Oct-20 06:33N 29°46' W 095°05'0 0.0
2014-Oct-20 05:33N 29°46' W 095°05'0 0.0
2014-Oct-20 04:33N 29°46' W 095°05'0 0.0
2014-Oct-20 03:30N 29°46' W 095°05'0 0.0
2014-Oct-20 02:33N 29°46' W 095°05'0 0.0
2014-Oct-20 01:30N 29°46' W 095°05'0 0.0
2014-Oct-20 00:31N 29°46' W 095°05'0 0.3
2014-Oct-19 23:11N 29°46' W 095°05'0 0.6
2014-Oct-19 22:31N 29°46' W 095°05'0 0.0
2014-Oct-19 21:33N 29°46' W 095°05'0 0.0
2014-Oct-19 20:29N 29°46' W 095°05'0 0.0
2014-Oct-19 19:17N 29°46' W 095°05'0 0.0
2014-Oct-19 18:33N 29°46' W 095°05'0 0.0
2014-Oct-19 17:33N 29°46' W 095°05'0 0.0
2014-Oct-19 16:33N 29°46' W 095°05'0 0.0
2014-Oct-19 15:32N 29°46' W 095°05'0 0.0
2014-Oct-19 14:32N 29°46' W 095°05'0 0.0
2014-Oct-19 13:32N 29°46' W 095°05'0 0.0
2014-Oct-19 12:32N 29°46' W 095°05'0 0.0
2014-Oct-19 11:33N 29°46' W 095°05'0 0.0
2014-Oct-19 10:33N 29°46' W 095°05'0 0.0
2014-Oct-19 09:33N 29°46' W 095°05'0 0.0
2014-Oct-19 08:33N 29°46' W 095°05'0 0.0
2014-Oct-19 07:30N 29°46' W 095°05'0 0.0
2014-Oct-19 06:29N 29°46' W 095°05'0 0.0
2014-Oct-19 05:33N 29°46' W 095°05'0 0.0
2014-Oct-19 04:33N 29°46' W 095°05'0 0.0
2014-Oct-19 03:33N 29°46' W 095°05'0 0.0
2014-Oct-19 02:33N 29°46' W 095°05'0 0.0
2014-Oct-19 01:32N 29°46' W 095°05'0 0.0
2014-Oct-19 00:32N 29°46' W 095°05'0 0.0
2014-Oct-18 23:33N 29°46' W 095°05'0 0.0
2014-Oct-18 22:29N 29°46' W 095°05'0 0.0
2014-Oct-18 21:33N 29°46' W 095°05'0 0.0
2014-Oct-18 20:32N 29°46' W 095°05'0 0.0
2014-Oct-18 19:33N 29°46' W 095°05'0 0.0
2014-Oct-18 18:30N 29°46' W 095°05'0 0.0
2014-Oct-18 17:29N 29°46' W 095°05'0 0.0
2014-Oct-18 16:31N 29°46' W 095°05'0 0.0
2014-Oct-18 15:33N 29°46' W 095°05'0 0.0
2014-Oct-18 14:33N 29°46' W 095°05'0 0.0
2014-Oct-18 13:33N 29°46' W 095°05'0 0.0
2014-Oct-18 12:33N 29°46' W 095°05'0 0.0
2014-Oct-18 11:33N 29°46' W 095°05'0 0.0
2014-Oct-18 10:30N 29°46' W 095°05'0 0.0
2014-Oct-18 09:33N 29°46' W 095°05'1 0.3
2014-Oct-18 07:24N 29°46' W 095°06'1 0.8
2014-Oct-18 06:33N 29°46' W 095°05'0 0.1
2014-Oct-18 05:33N 29°46' W 095°05'0 0.0
2014-Oct-18 04:33N 29°46' W 095°05'0 0.0
2014-Oct-18 03:33N 29°46' W 095°05'0 0.0
2014-Oct-18 02:33N 29°46' W 095°05'0 0.0
2014-Oct-18 01:33N 29°46' W 095°05'0 0.0
2014-Oct-18 00:33N 29°46' W 095°05'0 0.0
2014-Oct-17 23:33N 29°46' W 095°05'0 0.2
2014-Oct-17 22:33N 29°46' W 095°05'5 5.0
2014-Oct-17 21:33N 29°42' W 095°01'5 5.1
2014-Oct-17 20:33N 29°38' W 094°58'6 6.0
2014-Oct-17 19:33N 29°33' W 094°54'3 0.1
2014-Oct-16 21:05N 29°30' W 094°52'3 5.5
2014-Oct-16 20:33N 29°33' W 094°54'5 5.1
2014-Oct-16 19:33N 29°37' W 094°58'3 3.3
2014-Oct-16 18:33N 29°37' W 095°01'0 0.0
2014-Oct-16 17:33N 29°37' W 095°01'0 0.0
2014-Oct-16 16:33N 29°37' W 095°01'0 0.0
2014-Oct-16 15:33N 29°37' W 095°01'0 0.0
2014-Oct-16 14:33N 29°37' W 095°01'0 0.0
2014-Oct-16 13:33N 29°37' W 095°01'0 0.0
2014-Oct-16 12:33N 29°37' W 095°01'0 0.0
2014-Oct-16 11:33N 29°37' W 095°01'0 0.0
2014-Oct-16 10:33N 29°37' W 095°01'0 0.0
2014-Oct-16 09:33N 29°37' W 095°01'0 0.0
2014-Oct-16 08:33N 29°37' W 095°01'0 0.0
2014-Oct-16 07:33N 29°37' W 095°01'0 0.2
2014-Oct-16 06:33N 29°37' W 095°01'0 0.0
2014-Oct-16 05:33N 29°37' W 095°02'0 0.0
2014-Oct-16 04:33N 29°37' W 095°02'0 0.0
2014-Oct-16 03:33N 29°37' W 095°02'0 0.0
2014-Oct-16 02:33N 29°37' W 095°02'0 0.0
2014-Oct-16 01:33N 29°37' W 095°02'0 0.0
2014-Oct-16 00:33N 29°37' W 095°02'0 0.0
2014-Oct-15 23:33N 29°37' W 095°02'0 0.0
2014-Oct-15 22:33N 29°37' W 095°02'0 0.0
2014-Oct-15 21:33N 29°37' W 095°02'0 0.0
2014-Oct-15 20:33N 29°37' W 095°02'0 0.0
2014-Oct-15 19:33N 29°37' W 095°02'0 0.0
2014-Oct-15 18:33N 29°37' W 095°02'0 0.0
2014-Oct-15 17:31N 29°37' W 095°02'0 0.0
2014-Oct-15 16:33N 29°37' W 095°02'3 3.5
2014-Oct-15 15:33N 29°37' W 094°58'6 5.8
2014-Oct-15 14:33N 29°32' W 094°54'  

Dump ship's entire track history